Terminal Aerodrome Forecast
Issued by NWS Tulsa, OK

Home | Current Version | Previous Version | Text Only | Print | Product List | Glossary On
Versions: 1 2 3 4 5 6 7 8 9 10 11 12 13 14 15 16 17 18 19 20 21 22 23 24 25 26 27 28 29 30 31 32
000
FTUS44 KTSA 251100
TAFTUL
TAF
KTUL 251134Z 2512/2612 16012KT P6SM OVC008
     FM251500 18016G24KT P6SM OVC012
      TEMPO 2520/2524 1SM TSRA BKN025CB
     FM260000 18013KT P6SM OVC025
     FM260600 17002KT 4SM BR OVC025
     FM260900 20002KT 4SM BR OVC007=

USA.gov is the U.S. government's official web portal to all federal, state and local government web resources and services.